createdAt,value
2017-11-29T00:02:12.058Z,14.60
2017-11-29T00:04:38.168Z,14.75
2017-11-29T00:07:04.166Z,15.15
2017-11-29T00:09:30.149Z,14.93
2017-11-29T00:11:56.191Z,15.40
2017-11-29T00:14:22.950Z,15.70
2017-11-29T00:16:48.974Z,15.55
2017-11-29T00:19:14.957Z,16.65
2017-11-29T00:21:41.815Z,16.27
2017-11-29T00:24:08.588Z,17.27
2017-11-29T00:26:34.550Z,17.50
2017-11-29T00:29:00.621Z,17.10
2017-11-29T00:31:26.598Z,17.85
2017-11-29T00:33:52.615Z,17.33
2017-11-29T00:36:18.603Z,18.40
2017-11-29T00:38:44.622Z,18.67
2017-11-29T00:41:10.873Z,18.20
2017-11-29T00:43:36.845Z,19.20
2017-11-29T00:46:03.671Z,19.05
2017-11-29T00:48:30.395Z,19.85
2017-11-29T00:50:56.412Z,19.12
2017-11-29T00:53:22.418Z,19.58
2017-11-29T00:55:48.411Z,19.67
2017-11-29T00:58:14.410Z,21.23
2017-11-29T01:00:42.153Z,21.00
2017-11-29T01:03:08.140Z,20.77
2017-11-29T01:05:34.138Z,20.35
2017-11-29T01:08:00.133Z,20.40
2017-11-29T01:10:26.859Z,21.50
2017-11-29T01:12:52.831Z,19.77
2017-11-29T01:15:19.118Z,20.23
2017-11-29T01:17:45.872Z,19.65
2017-11-29T01:20:11.847Z,18.90
2017-11-29T01:22:37.898Z,19.52
2017-11-29T01:25:04.653Z,19.83
2017-11-29T01:27:31.386Z,20.52
2017-11-29T01:29:57.701Z,20.77
2017-11-29T01:32:23.711Z,19.75
2017-11-29T01:34:49.701Z,18.65
2017-11-29T01:37:15.708Z,18.90
2017-11-29T01:39:41.692Z,19.30
2017-11-29T01:42:08.790Z,20.20
2017-11-29T01:44:35.188Z,19.73
2017-11-29T01:47:01.176Z,20.52
2017-11-29T01:49:27.180Z,19.87
2017-11-29T01:51:53.185Z,21.80
2017-11-29T01:54:19.191Z,21.60
2017-11-29T01:56:45.174Z,22.05
2017-11-29T01:59:11.157Z,23.27
2017-11-29T02:01:37.138Z,21.62
2017-11-29T02:04:03.870Z,21.00
2017-11-29T02:06:30.589Z,20.42
2017-11-29T02:08:56.557Z,19.85
2017-11-29T02:11:22.570Z,19.77
2017-11-29T02:13:49.290Z,18.50
2017-11-29T02:16:16.032Z,20.88
2017-11-29T02:18:42.782Z,19.08
2017-11-29T02:21:09.485Z,19.65
2017-11-29T02:23:35.467Z,20.83
2017-11-29T02:26:02.283Z,19.17
2017-11-29T02:28:28.273Z,20.20
2017-11-29T02:30:54.254Z,21.45
2017-11-29T02:33:20.260Z,20.83
2017-11-29T02:35:46.249Z,21.70
2017-11-29T02:38:12.286Z,21.20
2017-11-29T02:40:51.653Z,22.45
2017-11-29T02:43:18.034Z,20.88
2017-11-29T02:45:44.064Z,21.85
2017-11-29T02:48:10.793Z,23.40
2017-11-29T02:50:36.785Z,23.05
2017-11-29T02:53:02.789Z,22.23
2017-11-29T02:55:28.794Z,23.20
2017-11-29T02:57:54.793Z,23.30
2017-11-29T03:00:21.535Z,24.37
2017-11-29T03:02:48.499Z,24.90
2017-11-29T03:05:15.255Z,23.60
2017-11-29T03:07:41.299Z,24.95
2017-11-29T03:10:07.353Z,24.00
2017-11-29T03:12:33.341Z,25.10
2017-11-29T03:14:59.345Z,24.17
2017-11-29T03:17:25.374Z,25.23
2017-11-29T03:19:51.400Z,26.08
2017-11-29T03:22:17.387Z,24.90
2017-11-29T03:24:44.195Z,24.75
2017-11-29T03:27:10.165Z,23.10
2017-11-29T03:29:36.149Z,23.13
2017-11-29T03:32:02.160Z,23.98
2017-11-29T03:34:28.163Z,23.48
2017-11-29T03:36:54.154Z,22.95
2017-11-29T03:39:20.163Z,23.12
2017-11-29T03:41:46.165Z,24.10
2017-11-29T03:44:12.938Z,22.55
2017-11-29T03:46:38.914Z,22.10
2017-11-29T03:49:04.903Z,23.15
2017-11-29T03:51:30.912Z,22.90
2017-11-29T03:53:56.909Z,22.10
2017-11-29T03:56:22.955Z,22.33
2017-11-29T03:58:49.159Z,22.62
2017-11-29T04:01:15.913Z,22.77
2017-11-29T04:03:41.937Z,23.02
2017-11-29T04:06:08.244Z,22.92
2017-11-29T04:08:34.992Z,23.55
2017-11-29T04:11:01.730Z,23.73
2017-11-29T04:13:28.521Z,24.45
2017-11-29T04:15:54.500Z,25.90
2017-11-29T04:18:20.509Z,25.42
2017-11-29T04:20:47.252Z,25.33
2017-11-29T04:23:14.010Z,24.10
2017-11-29T04:25:39.986Z,24.90
2017-11-29T04:28:06.071Z,22.98
2017-11-29T04:30:32.125Z,23.58
2017-11-29T04:32:58.106Z,23.53
2017-11-29T04:35:24.119Z,24.48
2017-11-29T04:37:50.090Z,23.83
2017-11-29T04:40:16.061Z,23.48
2017-11-29T04:42:42.072Z,23.38
2017-11-29T04:45:08.774Z,22.40
2017-11-29T04:47:34.813Z,23.48
2017-11-29T04:50:00.789Z,24.13
2017-11-29T04:52:26.776Z,24.48
2017-11-29T04:54:53.498Z,24.35
2017-11-29T04:57:20.248Z,23.87
2017-11-29T04:59:46.967Z,22.90
2017-11-29T05:02:12.979Z,24.63
2017-11-29T05:04:38.953Z,24.57
2017-11-29T05:07:04.943Z,24.48
2017-11-29T05:09:31.778Z,24.42
2017-11-29T05:11:57.839Z,23.92
2017-11-29T05:14:23.852Z,22.80
2017-11-29T05:16:49.835Z,22.90
2017-11-29T05:19:15.848Z,23.83
2017-11-29T05:21:41.802Z,24.50
2017-11-29T05:24:08.559Z,24.25
2017-11-29T05:26:34.546Z,25.15
2017-11-29T05:29:00.550Z,23.85
2017-11-29T05:31:26.531Z,22.60
2017-11-29T05:33:52.519Z,25.70
2017-11-29T05:36:19.327Z,24.17
2017-11-29T05:38:45.332Z,25.07
2017-11-29T05:41:11.333Z,25.55
2017-11-29T05:43:37.345Z,26.37
2017-11-29T05:46:03.385Z,25.47
2017-11-29T05:48:29.638Z,24.37
2017-11-29T05:50:55.617Z,25.77
2017-11-29T05:53:22.348Z,24.70
2017-11-29T05:55:49.073Z,24.70
2017-11-29T05:58:15.830Z,23.27
2017-11-29T06:00:42.581Z,25.27
2017-11-29T06:03:08.885Z,25.85
2017-11-29T06:05:35.610Z,24.33
2017-11-29T06:08:01.581Z,27.50
2017-11-29T06:10:27.587Z,26.20
2017-11-29T06:12:53.596Z,27.87
2017-11-29T06:15:20.361Z,27.25
2017-11-29T06:17:46.384Z,28.00
2017-11-29T06:20:12.367Z,27.23
2017-11-29T06:22:38.594Z,28.30
2017-11-29T06:25:04.592Z,26.98
2017-11-29T06:27:30.608Z,27.70
2017-11-29T06:29:56.614Z,28.40
2017-11-29T06:32:22.669Z,30.00
2017-11-29T06:34:48.658Z,28.38
2017-11-29T06:37:14.678Z,29.08
2017-11-29T06:39:40.639Z,29.20
2017-11-29T06:42:06.612Z,27.25
2017-11-29T06:44:32.606Z,28.38
2017-11-29T06:46:59.320Z,28.93
2017-11-29T06:49:25.300Z,29.67
2017-11-29T06:51:51.486Z,29.83
2017-11-29T06:54:18.232Z,27.62
2017-11-29T06:56:44.946Z,28.80
2017-11-29T06:59:10.985Z,27.85
2017-11-29T07:01:36.950Z,26.90
2017-11-29T07:04:02.956Z,26.92
2017-11-29T07:06:28.962Z,26.58
2017-11-29T07:08:55.667Z,26.10
2017-11-29T07:11:21.673Z,25.50
2017-11-29T07:13:47.672Z,27.63
2017-11-29T07:16:13.687Z,28.25
2017-11-29T07:18:39.671Z,27.83
2017-11-29T07:21:05.976Z,28.73
2017-11-29T07:23:31.959Z,28.08
2017-11-29T07:25:57.935Z,29.95
2017-11-29T07:28:23.997Z,28.93
2017-11-29T07:30:49.998Z,28.35
2017-11-29T07:33:16.729Z,29.23
2017-11-29T07:35:42.750Z,29.73
2017-11-29T07:38:08.754Z,28.70
2017-11-29T07:40:34.717Z,29.57
2017-11-29T07:43:00.715Z,29.00
2017-11-29T07:45:26.717Z,29.52
2017-11-29T07:47:52.689Z,29.55
2017-11-29T07:50:18.987Z,28.95
2017-11-29T07:52:44.946Z,29.58
2017-11-29T07:55:10.913Z,28.07
2017-11-29T07:57:36.908Z,28.58
2017-11-29T08:00:02.874Z,29.67
2017-11-29T08:02:28.850Z,31.12
2017-11-29T08:04:54.933Z,31.08
2017-11-29T08:07:21.633Z,30.90
2017-11-29T08:09:47.640Z,30.88
2017-11-29T08:12:13.668Z,30.53
2017-11-29T08:14:39.631Z,31.70
2017-11-29T08:17:06.365Z,31.17
2017-11-29T08:19:32.366Z,32.78
2017-11-29T08:21:58.341Z,31.60
2017-11-29T08:24:24.303Z,30.37
2017-11-29T08:26:51.166Z,32.20
2017-11-29T08:29:17.139Z,32.40
2017-11-29T08:31:43.107Z,32.60
2017-11-29T08:34:09.459Z,32.63
2017-11-29T08:36:36.164Z,31.07
2017-11-29T08:39:02.254Z,30.92
2017-11-29T08:41:28.246Z,30.42
2017-11-29T08:43:54.279Z,31.52
2017-11-29T08:46:20.285Z,31.27
2017-11-29T08:48:47.106Z,29.63
2017-11-29T08:51:13.102Z,28.15
2017-11-29T08:53:39.090Z,28.87
2017-11-29T08:56:05.146Z,29.40
2017-11-29T08:58:31.149Z,28.42
2017-11-29T09:00:57.183Z,29.40
2017-11-29T09:03:23.254Z,30.67
2017-11-29T09:05:49.995Z,28.55
2017-11-29T09:08:16.814Z,29.35
2017-11-29T09:10:42.821Z,28.77
2017-11-29T09:13:08.812Z,30.10
2017-11-29T09:15:34.798Z,30.75
2017-11-29T09:18:01.032Z,28.90
2017-11-29T09:20:27.751Z,29.50
2017-11-29T09:22:53.775Z,29.50
2017-11-29T09:25:20.118Z,31.92
2017-11-29T09:27:46.120Z,30.90
2017-11-29T09:30:12.110Z,31.10
2017-11-29T09:32:38.108Z,32.33
2017-11-29T09:35:04.096Z,32.97
2017-11-29T09:37:30.125Z,31.00
2017-11-29T09:39:56.132Z,28.97
2017-11-29T09:42:22.112Z,92.37
2017-11-29T09:44:48.107Z,35.33
2017-11-29T09:47:14.851Z,28.77
2017-11-29T09:49:41.570Z,27.58
2017-11-29T09:52:07.596Z,26.90
2017-11-29T09:54:34.328Z,26.90
2017-11-29T09:57:00.308Z,26.98
2017-11-29T09:59:27.096Z,28.27
2017-11-29T10:01:53.842Z,27.50
2017-11-29T10:04:20.566Z,27.33
2017-11-29T10:06:46.576Z,26.37
2017-11-29T10:09:12.558Z,27.23
2017-11-29T10:11:38.574Z,27.02
2017-11-29T10:14:04.659Z,25.90
2017-11-29T10:16:30.647Z,24.98
2017-11-29T10:18:56.645Z,25.00
2017-11-29T10:21:22.662Z,24.03
2017-11-29T10:23:48.650Z,23.50
2017-11-29T10:26:14.619Z,23.42
2017-11-29T10:28:40.673Z,23.70
2017-11-29T10:31:06.638Z,23.50
2017-11-29T10:33:32.620Z,24.90
2017-11-29T10:35:58.861Z,24.23
2017-11-29T10:38:24.834Z,24.73
2017-11-29T10:40:50.797Z,22.97
2017-11-29T10:43:16.814Z,21.90
2017-11-29T10:45:42.799Z,23.55
2017-11-29T10:48:08.766Z,23.40
2017-11-29T10:50:35.094Z,23.52
2017-11-29T10:53:01.085Z,23.83
2017-11-29T10:55:27.094Z,23.90
2017-11-29T10:57:53.083Z,24.02
2017-11-29T11:00:20.801Z,23.75
2017-11-29T11:02:46.791Z,23.23
2017-11-29T11:05:12.982Z,23.67
2017-11-29T11:07:39.703Z,22.53
2017-11-29T11:10:05.739Z,22.02
2017-11-29T11:12:31.697Z,23.17
2017-11-29T11:14:57.687Z,22.92
2017-11-29T11:17:24.443Z,23.92
2017-11-29T11:19:50.438Z,24.37
2017-11-29T11:22:16.417Z,25.50
2017-11-29T11:24:42.498Z,25.52
2017-11-29T11:27:09.225Z,24.65
2017-11-29T11:29:35.198Z,25.00
2017-11-29T11:32:01.199Z,25.02
2017-11-29T11:34:27.166Z,24.77
2017-11-29T11:36:53.130Z,26.60
2017-11-29T11:39:19.875Z,25.98
2017-11-29T11:41:46.612Z,23.90
2017-11-29T11:44:13.386Z,25.10
2017-11-29T11:46:39.757Z,22.92
2017-11-29T11:49:05.739Z,24.50
2017-11-29T11:51:31.690Z,24.03
2017-11-29T11:53:57.667Z,23.52
2017-11-29T11:56:23.636Z,24.05
2017-11-29T11:58:49.671Z,23.92
2017-11-29T12:01:16.417Z,23.75
2017-11-29T12:03:43.146Z,24.05
2017-11-29T12:06:09.913Z,24.23
2017-11-29T12:08:35.896Z,23.62
2017-11-29T12:11:01.892Z,23.73
2017-11-29T12:13:29.099Z,23.48
2017-11-29T12:15:55.098Z,24.65
2017-11-29T12:18:21.066Z,23.80
2017-11-29T12:20:47.095Z,23.58
2017-11-29T12:23:13.092Z,23.50
2017-11-29T12:25:39.075Z,22.80
2017-11-29T12:28:05.090Z,24.67
2017-11-29T12:30:31.067Z,25.42
2017-11-29T12:32:57.045Z,24.60
2017-11-29T12:35:23.026Z,25.15
2017-11-29T12:37:48.998Z,25.20
2017-11-29T12:40:15.079Z,23.73
2017-11-29T12:42:41.055Z,23.70
2017-11-29T12:45:07.802Z,23.13
2017-11-29T12:47:38.600Z,24.10
2017-11-29T12:50:16.890Z,24.42
2017-11-29T12:52:42.912Z,25.50
2017-11-29T12:55:08.883Z,25.88
2017-11-29T12:57:35.645Z,28.40
2017-11-29T13:00:02.524Z,27.37
2017-11-29T13:02:28.514Z,27.85
2017-11-29T13:04:54.544Z,28.92
2017-11-29T13:07:20.503Z,27.60
2017-11-29T13:09:46.502Z,29.70
2017-11-29T13:12:12.471Z,27.20
2017-11-29T13:14:39.193Z,27.98
2017-11-29T13:17:05.197Z,26.80
2017-11-29T13:19:31.180Z,26.73
2017-11-29T13:21:57.190Z,26.67
2017-11-29T13:24:23.937Z,27.17
2017-11-29T13:26:49.946Z,25.40
2017-11-29T13:29:16.663Z,26.97
2017-11-29T13:31:42.687Z,26.45
2017-11-29T13:34:08.650Z,26.30
2017-11-29T13:36:34.658Z,25.70
2017-11-29T13:39:00.979Z,25.47
2017-11-29T13:41:27.698Z,26.03
2017-11-29T13:43:53.683Z,26.45
2017-11-29T13:46:19.643Z,25.60
2017-11-29T13:48:45.649Z,25.92
2017-11-29T13:51:11.639Z,26.48
2017-11-29T13:53:37.626Z,25.00
2017-11-29T13:56:04.370Z,24.00
2017-11-29T13:58:30.369Z,24.17
2017-11-29T14:00:56.412Z,24.45
2017-11-29T14:03:23.220Z,24.93
2017-11-29T14:05:49.214Z,25.00
2017-11-29T14:08:15.243Z,25.10
2017-11-29T14:10:41.609Z,25.27
2017-11-29T14:13:07.658Z,26.37
2017-11-29T14:15:33.641Z,26.87
2017-11-29T14:17:59.662Z,26.30
2017-11-29T14:20:25.634Z,27.15
2017-11-29T14:22:51.608Z,26.80
2017-11-29T14:25:17.846Z,24.63
2017-11-29T14:27:43.944Z,25.52
2017-11-29T14:30:09.929Z,23.67
2017-11-29T14:32:35.921Z,23.17
2017-11-29T14:35:02.625Z,23.83
2017-11-29T14:37:28.598Z,23.70
2017-11-29T14:39:54.578Z,23.83
2017-11-29T14:42:20.565Z,25.00
2017-11-29T14:44:46.515Z,23.60
2017-11-29T14:47:12.506Z,23.75
2017-11-29T14:49:38.480Z,22.50
2017-11-29T14:52:04.437Z,23.80
2017-11-29T14:54:30.414Z,23.10
2017-11-29T14:56:56.411Z,23.25
2017-11-29T14:59:22.390Z,22.80
2017-11-29T15:01:49.116Z,23.20
2017-11-29T15:04:15.834Z,22.67
2017-11-29T15:06:41.939Z,24.25
2017-11-29T15:09:08.743Z,24.90
2017-11-29T15:11:34.723Z,24.67
2017-11-29T15:14:00.982Z,24.75
2017-11-29T15:16:27.697Z,21.00
2017-11-29T15:18:53.670Z,22.15
2017-11-29T15:21:19.859Z,22.30
2017-11-29T15:23:45.853Z,21.05
2017-11-29T15:26:11.840Z,21.95
2017-11-29T15:28:37.884Z,21.63
2017-11-29T15:31:03.954Z,22.90
2017-11-29T15:33:30.678Z,22.65
2017-11-29T15:35:56.666Z,22.70
2017-11-29T15:38:22.692Z,24.23
2017-11-29T15:40:48.696Z,24.80
2017-11-29T15:43:14.722Z,24.55
2017-11-29T15:45:40.708Z,23.12
2017-11-29T15:48:07.490Z,24.45
2017-11-29T15:50:33.584Z,23.70
2017-11-29T15:52:59.596Z,24.17
2017-11-29T15:55:25.589Z,22.15
2017-11-29T15:57:51.689Z,25.55
2017-11-29T16:00:17.720Z,24.87
2017-11-29T16:02:43.696Z,22.80
2017-11-29T16:05:09.779Z,23.55
2017-11-29T16:07:35.801Z,24.98
2017-11-29T16:10:01.800Z,25.52
2017-11-29T16:12:27.861Z,24.95
2017-11-29T16:14:54.593Z,25.50
2017-11-29T16:17:20.584Z,68.22
2017-11-29T16:19:46.561Z,53.78
2017-11-29T16:22:12.547Z,25.50
2017-11-29T16:24:38.550Z,46.70
2017-11-29T16:27:05.257Z,39.10
2017-11-29T16:29:31.230Z,25.63
2017-11-29T16:31:57.225Z,25.67
2017-11-29T16:34:23.207Z,25.95
2017-11-29T16:36:49.931Z,26.27
2017-11-29T16:39:16.668Z,25.98
2017-11-29T16:41:43.381Z,27.00
2017-11-29T16:44:09.383Z,26.33
2017-11-29T16:46:35.441Z,26.87
2017-11-29T16:49:01.422Z,27.37
2017-11-29T16:51:27.420Z,28.33
2017-11-29T16:53:53.458Z,29.00
2017-11-29T16:56:19.442Z,27.73
2017-11-29T16:58:46.157Z,25.27
2017-11-29T17:01:19.835Z,25.97
2017-11-29T17:03:45.851Z,25.88
2017-11-29T17:06:11.848Z,26.40
2017-11-29T17:08:37.881Z,26.67
2017-11-29T17:11:03.913Z,26.27
2017-11-29T17:13:29.946Z,26.33
2017-11-29T17:15:55.966Z,26.08
2017-11-29T17:18:21.939Z,26.70
2017-11-29T17:20:48.662Z,26.45
2017-11-29T17:23:14.645Z,27.25
2017-11-29T17:25:40.637Z,26.40
2017-11-29T17:28:06.646Z,26.87
2017-11-29T17:30:33.413Z,26.00
2017-11-29T17:32:59.503Z,26.35
2017-11-29T17:35:26.249Z,25.33
2017-11-29T17:37:52.992Z,24.17
2017-11-29T17:40:19.750Z,24.23
2017-11-29T17:42:45.757Z,24.10
2017-11-29T17:45:12.495Z,24.58
2017-11-29T17:47:39.202Z,24.33
2017-11-29T17:50:05.191Z,24.20
2017-11-29T17:52:31.162Z,25.25
2017-11-29T17:54:57.131Z,25.40
2017-11-29T17:57:23.135Z,25.85
2017-11-29T17:59:49.245Z,25.57
2017-11-29T18:02:15.981Z,26.15
2017-11-29T18:04:42.706Z,25.77
2017-11-29T18:07:08.727Z,27.17
2017-11-29T18:09:34.686Z,26.35
2017-11-29T18:12:00.732Z,27.10
2017-11-29T18:14:26.794Z,25.48
2017-11-29T18:16:52.773Z,26.60
2017-11-29T18:19:19.529Z,26.58
2017-11-29T18:21:45.626Z,26.27
2017-11-29T18:24:11.644Z,27.05
2017-11-29T18:26:37.638Z,26.87
2017-11-29T18:29:05.613Z,26.50
2017-11-29T18:31:33.818Z,28.00
2017-11-29T18:33:59.811Z,28.45
2017-11-29T18:36:26.845Z,29.10
2017-11-29T18:38:53.595Z,29.90
2017-11-29T18:41:20.302Z,28.52
2017-11-29T18:43:46.780Z,29.08
2017-11-29T18:46:12.820Z,28.30
2017-11-29T18:48:38.882Z,27.25
2017-11-29T18:51:04.874Z,29.73
2017-11-29T18:53:30.842Z,28.27
2017-11-29T18:55:57.595Z,27.35
2017-11-29T18:58:23.582Z,26.17
2017-11-29T19:00:52.108Z,27.73
2017-11-29T19:03:18.118Z,27.25
2017-11-29T19:05:44.907Z,28.27
2017-11-29T19:08:10.956Z,28.27
2017-11-29T19:10:36.969Z,30.57
2017-11-29T19:13:02.961Z,28.92
2017-11-29T19:15:28.985Z,28.85
2017-11-29T19:17:54.990Z,28.83
2017-11-29T19:20:21.001Z,29.98
2017-11-29T19:22:47.073Z,29.27
2017-11-29T19:25:13.042Z,30.07
2017-11-29T19:27:39.767Z,30.75
2017-11-29T19:30:05.762Z,30.95
2017-11-29T19:32:31.810Z,31.75
2017-11-29T19:34:58.532Z,31.00
2017-11-29T19:37:24.511Z,31.12
2017-11-29T19:39:50.496Z,29.90
2017-11-29T19:42:17.252Z,30.70
2017-11-29T19:44:43.242Z,32.30
2017-11-29T19:47:09.249Z,31.05
2017-11-29T19:49:35.318Z,31.40
2017-11-29T19:52:01.301Z,31.50
2017-11-29T19:54:27.302Z,31.85
2017-11-29T19:56:53.303Z,39.55
2017-11-29T19:59:19.292Z,30.12
2017-11-29T20:01:46.014Z,32.03
2017-11-29T20:04:12.024Z,32.50
2017-11-29T20:06:38.058Z,33.08
2017-11-29T20:09:04.029Z,32.93
2017-11-29T20:11:30.053Z,139.40
2017-11-29T20:13:56.051Z,83.22
2017-11-29T20:16:22.774Z,42.05
2017-11-29T20:18:49.518Z,52.15
2017-11-29T20:21:16.222Z,72.45
2017-11-29T20:23:42.218Z,42.45
2017-11-29T20:26:08.244Z,39.00
2017-11-29T20:28:34.264Z,43.63
2017-11-29T20:31:00.325Z,38.00
2017-11-29T20:33:26.325Z,37.03
2017-11-29T20:35:52.350Z,32.93
2017-11-29T20:38:18.347Z,34.33
2017-11-29T20:40:44.650Z,34.67
2017-11-29T20:43:11.363Z,33.67
2017-11-29T20:45:37.330Z,33.15
2017-11-29T20:48:03.314Z,32.83
2017-11-29T20:50:29.346Z,33.25
2017-11-29T20:52:56.103Z,32.55
2017-11-29T20:55:22.085Z,32.65
2017-11-29T20:57:48.077Z,30.88
2017-11-29T21:00:14.376Z,32.00
2017-11-29T21:02:41.105Z,31.20
2017-11-29T21:05:07.814Z,30.83
2017-11-29T21:07:34.984Z,30.67
2017-11-29T21:10:01.719Z,31.42
2017-11-29T21:12:27.799Z,32.03
2017-11-29T21:14:53.808Z,31.83
2017-11-29T21:17:19.796Z,33.70
2017-11-29T21:19:46.519Z,33.08
2017-11-29T21:22:12.485Z,32.90
2017-11-29T21:24:38.478Z,36.33
2017-11-29T21:27:05.202Z,38.30
2017-11-29T21:29:31.189Z,35.95
2017-11-29T21:31:57.169Z,36.23
2017-11-29T21:34:23.438Z,38.53
2017-11-29T21:36:49.415Z,38.88
2017-11-29T21:39:16.146Z,39.53
2017-11-29T21:41:42.870Z,38.60
2017-11-29T21:44:08.838Z,38.28
2017-11-29T21:46:34.847Z,37.85
2017-11-29T21:49:00.844Z,39.10
2017-11-29T21:51:27.564Z,39.15
2017-11-29T21:53:53.531Z,48.40
2017-11-29T21:56:19.541Z,75.07
2017-11-29T21:58:46.284Z,37.65
2017-11-29T22:01:12.254Z,39.22
2017-11-29T22:03:38.278Z,37.03
2017-11-29T22:06:04.274Z,36.83
2017-11-29T22:08:30.235Z,37.30
2017-11-29T22:10:56.231Z,34.63
2017-11-29T22:13:22.287Z,33.53
2017-11-29T22:15:48.248Z,34.90
2017-11-29T22:18:14.238Z,33.88
2017-11-29T22:20:40.961Z,33.42
2017-11-29T22:23:06.916Z,34.78
2017-11-29T22:25:33.634Z,35.20
2017-11-29T22:27:59.635Z,33.92
2017-11-29T22:30:25.582Z,34.33
2017-11-29T22:32:51.554Z,56.20
2017-11-29T22:35:17.534Z,35.72
2017-11-29T22:37:43.914Z,34.88
2017-11-29T22:40:09.875Z,33.40
2017-11-29T22:42:36.629Z,34.78
2017-11-29T22:45:03.639Z,36.53
2017-11-29T22:47:29.646Z,36.42
2017-11-29T22:49:55.605Z,37.15
2017-11-29T22:52:21.634Z,36.70
2017-11-29T22:54:48.369Z,37.35
2017-11-29T22:57:15.089Z,36.00
2017-11-29T22:59:41.367Z,36.75
2017-11-29T23:02:07.366Z,35.72
2017-11-29T23:04:34.087Z,34.25
2017-11-29T23:07:00.081Z,35.80
2017-11-29T23:09:26.038Z,35.50
2017-11-29T23:11:52.761Z,38.10
2017-11-29T23:14:18.778Z,35.63
2017-11-29T23:16:44.761Z,35.50
2017-11-29T23:19:10.746Z,36.97
2017-11-29T23:21:37.494Z,37.40
2017-11-29T23:24:04.197Z,36.10
2017-11-29T23:26:30.199Z,35.75
2017-11-29T23:28:56.462Z,34.57
2017-11-29T23:31:22.455Z,35.15
2017-11-29T23:33:48.440Z,35.60
2017-11-29T23:36:15.235Z,35.00
2017-11-29T23:38:41.238Z,35.65
2017-11-29T23:41:07.209Z,35.00
2017-11-29T23:43:34.242Z,34.80
2017-11-29T23:46:00.997Z,34.17
2017-11-29T23:48:27.714Z,33.30
2017-11-29T23:50:53.674Z,33.30
2017-11-29T23:53:19.666Z,35.40
2017-11-29T23:55:46.420Z,34.28
2017-11-29T23:58:13.133Z,35.78
